KEMM Airport (Kemmerer Muni) Information

FAA: EMM - ICAO: KEMM

KEMM Airport Location

State Wyoming
County Lincoln
City Kemmerer
KEMM Airport is 2 miles northwest of Kemmerer, WY.
Latitude 41-49-26.7000N
Longitude 110-33-25.0000W
Elevation 7,288ft

KEMM Airport METARs

METAR KEMM 181410Z AUTO 29011G20KT 250V320 10SM CLR M02/M16 A2997 RMK AO2
Altimeter 29.97"
Temperature -2.0°C (28.4°F)
Wind 290° at 11KT with gusts to 20KT
Clouds Skies are clear.
Visibility 10.0mi
Time observed: 2022-01-18T14:10:00Z

KEMM Airport Details

Status Operational
Activation November 1937
Ownership Public
Usage Public
Chart SALT LAKE CITY
ATC on-site No
Beacon schedule sunset-sunrise
Beacon color clear green

KEMM Airport Contacts

Owner CITY OF KEMMERER
Owner address 220 WYO HIWAY 233, KEMMERER, WY 83101
Owner phone 307-828-2350
Manager TIM SCHELL
Manager address P.O. BOX 2046, DUBOIS, WY 82513
Manager phone 307-455-2100

KEMM Airport (Kemmerer Muni) Radio Frequencies

KEMM (Airport) Radio Frequencies

UNICOM 122.8
Common traffic advisory frequency (CTAF) 122.8